Quabaug River @ W. Brimfield, Ma

Quaboag River at West Brimfield
 Total Drainage Area: 150 sq. miles 
 Drainage Area Controlled by Corps Dams: 0 sq. miles (0%) 
 Warning Flow/Stage: 1,250 cfs / 6.0 feet 
 Flood Flow/Stage: 1,840 cfs / 7.0 feet 
Date Time
(Eastern)
Stage
(ft)
Flow
(cfs)
CSM
(cfs / sq. mi.)
Feb-01 05:15 pm 4.87 672 4.5
Feb-01 04:15 pm 4.86 668 4.5
Feb-01 03:15 pm 4.88 676 4.5
Feb-01 02:15 pm 4.88 676 4.5
Feb-01 01:15 pm 4.88 676 4.5
Feb-01 12:15 pm 4.89 681 4.5
Feb-01 11:15 am      
Feb-01 10:15 am 4.89 681 4.5
Feb-01 09:15 am 4.89 681 4.5
Feb-01 08:15 am 4.90 685 4.6
Feb-01 07:15 am 4.90 685 4.6
Feb-01 06:15 am 4.91 689 4.6
Feb-01 05:15 am 4.91 689 4.6
Feb-01 04:15 am 4.91 689 4.6
Feb-01 03:15 am 4.92 694 4.6
Feb-01 02:15 am 4.93 698 4.7
Feb-01 01:15 am 4.91 689 4.6
Feb-01 12:15 am 4.93 698 4.7
Jan-31 11:15 pm 4.94 703 4.7
Jan-31 10:15 pm 4.94 703 4.7
Jan-31 09:15 pm 4.94 703 4.7
Jan-31 08:15 pm 4.95 707 4.7
Jan-31 07:15 pm 4.95 707 4.7
Jan-31 06:15 pm 4.95 707 4.7
Jan-31 05:15 pm 4.96 711 4.7
Report Generated February 01, 2023 10:45 pm